Data for 01/23/2019

Time Sea-Level Adjusted Pressure Absolute Pressure Temperature Relative Humidity Dew Point   
(mb) (inHg) (mb) (inHg) (C) (F) (%) (C) (F)
00:05 1020 30.12 849 25.07 -3.1 26.4 61 -9.6 14.7
00:10 1020 30.12 849 25.07 -2.9 26.7 64 -8.8 16.2
00:15 1020 30.12 849 25.07 -3 26.6 65 -8.7 16.3
00:20 1020 30.12 849 25.07 -3.1 26.4 66 -8.5 16.7
00:25 1020 30.12 849 25.07 -3.2 26.3 70 -7.8 18
00:30 1020 30.12 849 25.07 -3.4 25.9 73 -7.5 18.5
00:35 1020 30.12 849 25.07 -3.7 25.3 76 -7.4 18.7
00:40 1020 30.12 849 25.07 -3.9 25.1 76 -7.6 18.4
00:45 1020 30.12 849 25.07 -3.9 25 76 -7.5 18.5
00:50 1020 30.12 849 25.07 -3.9 25 77 -7.4 18.7
00:55 1020 30.12 849 25.07 -3.9 25 77 -7.4 18.6
01:00 1020 30.12 849 25.07 -3.9 24.9 78 -7.2 19.1
01:05 1019 30.09 849 25.07 -4 24.8 80 -6.9 19.6
01:10 1019 30.09 849 25.07 -4.2 24.5 82 -6.8 19.7
01:15 1019 30.09 849 25.07 -4.2 24.4 82 -6.8 19.8
01:20 1019 30.09 849 25.07 -4.2 24.4 83 -6.7 19.9
01:25 1019 30.09 848 25.04 -4.2 24.5 83 -6.7 20
01:30 1019 30.09 848 25.04 -4.2 24.5 84 -6.5 20.3
01:35 1019 30.09 848 25.04 -4.2 24.5 84 -6.4 20.4
01:40 1019 30.09 848 25.04 -4.2 24.5 85 -6.3 20.6
01:45 1019 30.09 848 25.04 -4.2 24.4 86 -6.2 20.8
01:50 1019 30.09 848 25.04 -4.3 24.3 87 -6.2 20.9
01:55 1019 30.09 848 25.04 -4.3 24.3 87 -6.1 21
02:00 1019 30.09 848 25.04 -4.3 24.2 88 -6.1 21.1
02:05 1019 30.09 848 25.04 -4.3 24.2 88 -6 21.2
02:10 1019 30.09 848 25.04 -4.3 24.2 88 -6 21.2
02:15 1019 30.09 848 25.04 -4.3 24.2 89 -6 21.3
02:20 1019 30.09 848 25.04 -4.3 24.2 89 -5.9 21.4
02:25 1019 30.09 848 25.04 -4.3 24.2 89 -5.9 21.4
02:30 1018 30.06 848 25.04 -4.3 24.2 89 -5.9 21.4
02:35 1018 30.06 848 25.04 -4.4 24.1 89 -5.9 21.5
02:40 1018 30.06 848 25.04 -4.4 24.1 90 -5.8 21.5
02:45 1018 30.06 847 25.01 -4.3 24.2 90 -5.8 21.6
02:50 1018 30.06 847 25.01 -4.3 24.2 90 -5.7 21.7
02:55 1018 30.06 847 25.01 -4.3 24.2 90 -5.7 21.7
03:00 1018 30.06 847 25.01 -4.3 24.3 90 -5.7 21.8
03:05 1018 30.06 847 25.01 -4.3 24.3 90 -5.6 21.8
03:10 1018 30.06 847 25.01 -4.2 24.4 90 -5.6 22
03:15 1018 30.06 847 25.01 -4.2 24.5 90 -5.6 22
03:20 1018 30.06 847 25.01 -4.2 24.5 90 -5.6 22
03:25 1018 30.06 847 25.01 -4.2 24.5 90 -5.5 22.1
03:30 1018 30.06 847 25.01 -4.1 24.5 90 -5.5 22.1
03:35 1018 30.06 847 25.01 -4.1 24.6 91 -5.4 22.2
03:40 1018 30.06 847 25.01 -4.1 24.7 90 -5.4 22.3
03:45 1018 30.06 847 25.01 -4 24.8 90 -5.4 22.4
03:50 1018 30.06 847 25.01 -4 24.9 90 -5.4 22.4
03:55 1018 30.06 847 25.01 -4.1 24.7 90 -5.5 22.2
04:00 1018 30.06 847 25.01 -4 24.8 90 -5.4 22.4
04:05 1018 30.06 847 25.01 -3.9 25 90 -5.2 22.6
04:10 1018 30.06 847 25.01 -3.8 25.1 90 -5.3 22.5
04:15 1017 30.03 847 25.01 -3.9 24.9 90 -5.4 22.3
04:20 1017 30.03 847 25.01 -3.9 25 90 -5.4 22.4
04:25 1017 30.03 846 24.98 -3.9 25 90 -5.4 22.4
04:30 1017 30.03 846 24.98 -3.9 25 89 -5.4 22.3
04:35 1017 30.03 846 24.98 -3.9 25 90 -5.4 22.3
04:40 1017 30.03 846 24.98 -3.8 25.1 90 -5.3 22.5
04:45 1017 30.03 846 24.98 -3.7 25.3 89 -5.2 22.6
04:50 1017 30.03 846 24.98 -3.6 25.4 89 -5.2 22.7
04:55 1017 30.03 846 24.98 -3.6 25.5 89 -5.1 22.7
05:00 1017 30.03 846 24.98 -3.6 25.6 89 -5.1 22.8
05:05 1017 30.03 846 24.98 -3.6 25.5 89 -5.2 22.7
05:10 1017 30.03 846 24.98 -3.6 25.5 89 -5.3 22.5
05:15 1017 30.03 846 24.98 -3.8 25.1 89 -5.4 22.3
05:20 1017 30.03 846 24.98 -3.9 25 89 -5.4 22.2
05:25 1017 30.03 846 24.98 -3.9 25 90 -5.4 22.3
05:30 1017 30.03 846 24.98 -3.9 25 90 -5.3 22.5
05:35 1017 30.03 846 24.98 -3.8 25.2 90 -5.2 22.7
05:40 1017 30.03 846 24.98 -3.8 25.2 90 -5.2 22.7
05:45 1016 30 846 24.98 -3.8 25.2 90 -5.2 22.7
05:50 1016 30 846 24.98 -3.8 25.2 90 -5.2 22.7
05:55 1016 30 845 24.95 -3.8 25.2 90 -5.1 22.8
06:00 1016 30 845 24.95 -3.7 25.3 91 -5.1 22.9
06:05 1016 30 845 24.95 -3.7 25.3 90 -5.1 22.8
06:10 1016 30 845 24.95 -3.8 25.1 90 -5.2 22.7
06:15 1016 30 845 24.95 -3.9 24.9 91 -5.2 22.6
06:20 1016 30 845 24.95 -3.9 25.1 91 -5.2 22.7
06:25 1016 30 845 24.95 -3.8 25.1 91 -5.2 22.7
06:30 1016 30 845 24.95 -3.9 25 91 -5.2 22.7
06:35 1016 30 845 24.95 -3.9 25 91 -5.2 22.6
06:40 1016 30 845 24.95 -4 24.8 91 -5.3 22.5
06:45 1016 30 845 24.95 -4 24.8 91 -5.3 22.5
06:50 1016 30 845 24.95 -4 24.8 91 -5.3 22.5
06:55 1016 30 845 24.95 -4 24.7 91 -5.3 22.5
07:00 1016 30 845 24.95 -4 24.7 91 -5.3 22.4
07:05 1016 30 845 24.95 -4 24.8 91 -5.3 22.4
07:10 1016 30 845 24.95 -4 24.9 91 -5.3 22.5
07:15 1015 29.97 845 24.95 -3.9 24.9 91 -5.3 22.5
07:20 1016 30 845 24.95 -3.9 24.9 91 -5.2 22.6
07:25 1016 30 845 24.95 -4 24.9 91 -5.3 22.5
07:30 1015 29.97 845 24.95 -3.9 24.9 91 -5.3 22.5
07:35 1015 29.97 845 24.95 -3.9 24.9 91 -5.3 22.5
07:40 1015 29.97 845 24.95 -3.9 25 91 -5.2 22.6
07:45 1015 29.97 844 24.92 -3.9 25 91 -5.2 22.6
07:50 1015 29.97 844 24.92 -3.9 25 90 -5.2 22.6
07:55 1015 29.97 844 24.92 -3.8 25.2 91 -5.1 22.8
08:00 1015 29.97 844 24.92 -3.8 25.2 90 -5.2 22.7
08:05 1015 29.97 844 24.92 -3.9 25 90 -5.3 22.5
08:10 1015 29.97 844 24.92 -3.9 25 90 -5.3 22.4
08:15 1015 29.97 844 24.92 -3.9 24.9 89 -5.4 22.2
08:20 1015 29.97 844 24.92 -4 24.9 89 -5.5 22.1
08:25 1015 29.97 844 24.92 -3.9 24.9 89 -5.6 22
08:30 1015 29.97 844 24.92 -3.9 25 89 -5.5 22
08:35 1015 29.97 844 24.92 -3.9 25.1 88 -5.5 22
08:40 1015 29.97 844 24.92 -3.8 25.2 88 -5.5 22.1
08:45 1015 29.97 844 24.92 -3.7 25.3 88 -5.5 22.2
08:50 1015 29.97 844 24.92 -3.6 25.5 88 -5.3 22.5
08:55 1015 29.97 844 24.92 -3.5 25.7 87 -5.3 22.4
09:00 1015 29.97 844 24.92 -3.5 25.7 87 -5.3 22.4
09:05 1015 29.97 844 24.92 -3.5 25.6 87 -5.4 22.4
09:10 1015 29.97 844 24.92 -3.5 25.7 87 -5.4 22.3
09:15 1014 29.94 844 24.92 -3.5 25.7 87 -5.4 22.3
09:20 1014 29.94 844 24.92 -3.5 25.7 86 -5.5 22.1
09:25 1014 29.94 844 24.92 -3.5 25.8 86 -5.4 22.3
09:30 1014 29.94 844 24.92 -3.3 26 86 -5.3 22.5
09:35 1014 29.94 844 24.92 -3.2 26.2 85 -5.5 22.2
09:40 1014 29.94 844 24.92 -3.2 26.3 84 -5.5 22
09:45 1014 29.94 844 24.92 -3.2 26.3 83 -5.6 21.9
09:50 1014 29.94 844 24.92 -3.2 26.2 84 -5.6 21.9
09:55 1014 29.94 844 24.92 -3.1 26.5 83 -5.5 22
10:00 1014 29.94 844 24.92 -3 26.6 82 -5.6 21.9
10:05 1015 29.97 844 24.92 -3 26.6 82 -5.6 21.9
10:10 1015 29.97 844 24.92 -3 26.5 83 -5.6 22
10:15 1015 29.97 844 24.92 -2.9 26.7 83 -5.4 22.3
10:20 1015 29.97 844 24.92 -2.8 27 82 -5.4 22.3
10:25 1015 29.97 844 24.92 -2.7 27.2 81 -5.4 22.2
10:30 1015 29.97 844 24.92 -2.5 27.5 81 -5.3 22.5
10:35 1015 29.97 844 24.92 -2.3 27.8 81 -5.2 22.7
10:40 1015 29.97 844 24.92 -2.2 28 81 -5.1 22.8
10:45 1015 29.97 844 24.92 -2.2 28.1 82 -4.8 23.3
10:50 1015 29.97 844 24.92 -2.3 27.9 82 -4.9 23.2
10:55 1015 29.97 844 24.92 -2.5 27.5 83 -5 23.1
11:00 1015 29.97 844 24.92 -2.4 27.6 84 -4.8 23.3
11:05 1015 29.97 844 24.92 -2.3 27.9 84 -4.7 23.5
11:10 1015 29.97 844 24.92 -2.2 28.1 83 -4.6 23.7
11:15 1015 29.97 844 24.92 -2 28.4 83 -4.5 23.9
11:20 1015 29.97 844 24.92 -2 28.3 83 -4.5 23.8
11:25 1015 29.97 844 24.92 -2.1 28.3 84 -4.4 24
11:30 1015 29.97 844 24.92 -1.9 28.6 84 -4.2 24.5
11:35 1015 29.97 844 24.92 -1.9 28.6 86 -3.9 25
11:40 1015 29.97 844 24.92 -1.9 28.6 87 -3.7 25.3
11:45 1015 29.97 844 24.92 -1.7 29 87 -3.5 25.6
11:50 1015 29.97 844 24.92 -1.7 29 87 -3.5 25.7
11:55 1015 29.97 844 24.92 -1.4 29.5 87 -3.2 26.2
12:00 1015 29.97 844 24.92 -1.1 30 86 -3.2 26.2
12:05 1015 29.97 844 24.92 -1.4 29.5 86 -3.4 25.9
12:10 1015 29.97 844 24.92 -1.7 29 88 -3.5 25.8
12:15 1015 29.97 844 24.92 -1.8 28.8 88 -3.4 25.8
12:20 1015 29.97 844 24.92 -1.7 28.9 89 -3.3 26
12:25 1015 29.97 844 24.92 -1.6 29.1 90 -3.1 26.4
12:30 1015 29.97 845 24.95 -1.3 29.6 90 -2.8 27
12:35 1015 29.97 845 24.95 -0.9 30.4 90 -2.4 27.8
12:40 1015 29.97 845 24.95 -0.5 31.2 88 -2.2 28.1
12:45 1015 29.97 845 24.95 -0.5 31.1 88 -2.3 27.8
12:50 1015 29.97 844 24.92 -0.8 30.6 88 -2.5 27.4
12:55 1015 29.97 844 24.92 -0.9 30.4 89 -2.4 27.7
13:00 1015 29.97 844 24.92 -0.5 31 89 -2.1 28.2
13:05 1015 29.97 844 24.92 -0.3 31.5 88 -2.1 28.3
13:10 1015 29.97 844 24.92 -0.1 31.8 87 -2.1 28.3
13:15 1015 29.97 844 24.92 -0 31.9 86 -2.1 28.2
13:20 1015 29.97 844 24.92 0.1 32.1 84 -2.3 27.9
13:25 1015 29.97 844 24.92 0.1 32.2 83 -2.4 27.7